Terminal Aerodrome Forecast
Issued by NWS Nashville, TN

Home | Current Version | Previous Version | Text Only | Print | Product List | Glossary On
Versions: 1 2 3 4 5 6 7 8 9 10 11 12 13 14 15 16 17 18 19
000
FTUS44 KOHX 241500 AAB
TAFBNA
TAF AMD
KBNA 241527Z 2415/2512 33005KT P6SM BKN016 OVC024
     FM241800 36008G16KT P6SM SCT040 SCT250
     FM250200 02004KT P6SM SCT250
      TEMPO 2510/2511 5SM BR=

USA.gov is the U.S. government's official web portal to all federal, state and local government web resources and services.